sensor_id;sensor_type;location;lat;lon;timestamp;P1;durP1;ratioP1;P2;durP2;ratioP2
86441;SDS011;77105;48.940;12.050;2024-03-23T00:54:53;19.25;;;12.70;;
86441;SDS011;77105;48.940;12.050;2024-03-23T00:58:55;19.75;;;12.57;;
86441;SDS011;77105;48.940;12.050;2024-03-23T01:02:57;22.60;;;14.07;;
86441;SDS011;77105;48.940;12.050;2024-03-23T01:06:58;19.70;;;12.70;;
86441;SDS011;77105;48.940;12.050;2024-03-23T01:11:01;22.27;;;12.48;;
86441;SDS011;77105;48.940;12.050;2024-03-23T01:15:03;24.75;;;13.10;;
86441;SDS011;77105;48.940;12.050;2024-03-23T01:19:05;20.20;;;12.45;;
86441;SDS011;77105;48.940;12.050;2024-03-23T01:23:07;20.63;;;13.75;;
86441;SDS011;77105;48.940;12.050;2024-03-23T01:27:10;21.48;;;12.82;;
86441;SDS011;77105;48.940;12.050;2024-03-23T01:31:11;20.52;;;13.05;;
86441;SDS011;77105;48.940;12.050;2024-03-23T01:35:13;20.73;;;12.45;;
86441;SDS011;77105;48.940;12.050;2024-03-23T01:39:15;22.20;;;13.65;;
86441;SDS011;77105;48.940;12.050;2024-03-23T01:43:18;21.50;;;13.18;;
86441;SDS011;77105;48.940;12.050;2024-03-23T01:47:20;24.20;;;14.98;;
86441;SDS011;77105;48.940;12.050;2024-03-23T01:51:21;23.35;;;13.65;;
86441;SDS011;77105;48.940;12.050;2024-03-23T01:55:23;21.35;;;13.25;;
86441;SDS011;77105;48.940;12.050;2024-03-23T01:59:27;23.27;;;13.90;;
86441;SDS011;77105;48.940;12.050;2024-03-23T02:03:28;20.83;;;12.95;;
86441;SDS011;77105;48.940;12.050;2024-03-23T02:07:30;22.15;;;13.10;;
86441;SDS011;77105;48.940;12.050;2024-03-23T02:11:32;21.05;;;13.05;;
86441;SDS011;77105;48.940;12.050;2024-03-23T02:15:35;19.83;;;12.70;;
86441;SDS011;77105;48.940;12.050;2024-03-23T02:19:37;20.50;;;12.63;;
86441;SDS011;77105;48.940;12.050;2024-03-23T02:23:42;20.42;;;12.77;;
86441;SDS011;77105;48.940;12.050;2024-03-23T02:27:44;20.92;;;12.05;;
86441;SDS011;77105;48.940;12.050;2024-03-23T02:31:46;17.08;;;11.23;;
86441;SDS011;77105;48.940;12.050;2024-03-23T02:35:48;18.40;;;11.95;;
86441;SDS011;77105;48.940;12.050;2024-03-23T02:39:51;17.55;;;11.63;;
86441;SDS011;77105;48.940;12.050;2024-03-23T02:43:52;16.92;;;11.13;;
86441;SDS011;77105;48.940;12.050;2024-03-23T02:47:54;17.20;;;10.45;;
86441;SDS011;77105;48.940;12.050;2024-03-23T02:51:56;15.98;;;10.70;;
86441;SDS011;77105;48.940;12.050;2024-03-23T02:56:00;19.92;;;12.20;;
86441;SDS011;77105;48.940;12.050;2024-03-23T03:00:02;19.38;;;12.38;;
86441;SDS011;77105;48.940;12.050;2024-03-23T03:04:04;19.25;;;12.38;;
86441;SDS011;77105;48.940;12.050;2024-03-23T03:08:06;20.05;;;12.55;;
86441;SDS011;77105;48.940;12.050;2024-03-23T03:12:09;19.38;;;12.13;;
86441;SDS011;77105;48.940;12.050;2024-03-23T03:16:12;17.27;;;11.00;;
86441;SDS011;77105;48.940;12.050;2024-03-23T03:20:14;19.60;;;11.85;;
86441;SDS011;77105;48.940;12.050;2024-03-23T03:24:18;17.90;;;11.05;;
86441;SDS011;77105;48.940;12.050;2024-03-23T03:28:20;18.77;;;10.93;;
86441;SDS011;77105;48.940;12.050;2024-03-23T03:32:22;18.33;;;10.98;;
86441;SDS011;77105;48.940;12.050;2024-03-23T03:36:24;17.98;;;10.98;;
86441;SDS011;77105;48.940;12.050;2024-03-23T03:40:26;18.48;;;10.85;;
86441;SDS011;77105;48.940;12.050;2024-03-23T03:44:29;16.95;;;11.68;;
86441;SDS011;77105;48.940;12.050;2024-03-23T03:48:30;24.23;;;14.80;;
86441;SDS011;77105;48.940;12.050;2024-03-23T03:52:32;19.00;;;11.73;;
86441;SDS011;77105;48.940;12.050;2024-03-23T03:56:33;14.20;;;10.00;;
86441;SDS011;77105;48.940;12.050;2024-03-23T04:00:36;15.32;;;10.57;;
86441;SDS011;77105;48.940;12.050;2024-03-23T04:04:38;14.23;;;10.00;;
86441;SDS011;77105;48.940;12.050;2024-03-23T04:08:40;15.48;;;10.15;;
86441;SDS011;77105;48.940;12.050;2024-03-23T04:12:42;15.57;;;9.80;;
86441;SDS011;77105;48.940;12.050;2024-03-23T04:16:46;15.77;;;10.35;;
86441;SDS011;77105;48.940;12.050;2024-03-23T04:20:48;13.52;;;9.73;;
86441;SDS011;77105;48.940;12.050;2024-03-23T04:24:50;16.70;;;10.02;;
86441;SDS011;77105;48.940;12.050;2024-03-23T04:28:53;16.65;;;9.82;;
86441;SDS011;77105;48.940;12.050;2024-03-23T04:32:56;15.52;;;10.13;;
86441;SDS011;77105;48.940;12.050;2024-03-23T04:36:58;17.02;;;10.45;;
86441;SDS011;77105;48.940;12.050;2024-03-23T04:41:00;15.95;;;9.75;;
86441;SDS011;77105;48.940;12.050;2024-03-23T04:45:02;14.63;;;9.60;;
86441;SDS011;77105;48.940;12.050;2024-03-23T04:49:07;13.27;;;9.07;;
86441;SDS011;77105;48.940;12.050;2024-03-23T04:53:10;12.40;;;9.27;;
86441;SDS011;77105;48.940;12.050;2024-03-23T04:57:12;14.38;;;9.18;;
86441;SDS011;77105;48.940;12.050;2024-03-23T05:01:13;14.45;;;10.05;;
86441;SDS011;77105;48.940;12.050;2024-03-23T05:05:17;25.50;;;15.57;;
86441;SDS011;77105;48.940;12.050;2024-03-23T05:09:18;17.35;;;10.52;;
86441;SDS011;77105;48.940;12.050;2024-03-23T05:13:21;16.70;;;10.45;;
86441;SDS011;77105;48.940;12.050;2024-03-23T05:17:22;16.88;;;10.25;;
86441;SDS011;77105;48.940;12.050;2024-03-23T05:21:25;16.65;;;11.50;;
86441;SDS011;77105;48.940;12.050;2024-03-23T05:25:27;15.07;;;9.95;;
86441;SDS011;77105;48.940;12.050;2024-03-23T05:29:28;15.65;;;10.05;;
86441;SDS011;77105;48.940;12.050;2024-03-23T05:33:30;13.90;;;9.45;;
86441;SDS011;77105;48.940;12.050;2024-03-23T05:37:34;14.40;;;9.63;;
86441;SDS011;77105;48.940;12.050;2024-03-23T05:41:36;14.10;;;9.23;;
86441;SDS011;77105;48.940;12.050;2024-03-23T05:45:37;13.88;;;9.63;;
86441;SDS011;77105;48.940;12.050;2024-03-23T05:49:39;13.85;;;9.18;;
86441;SDS011;77105;48.940;12.050;2024-03-23T05:53:43;13.45;;;8.73;;
86441;SDS011;77105;48.940;12.050;2024-03-23T05:57:45;14.88;;;9.30;;
86441;SDS011;77105;48.940;12.050;2024-03-23T06:01:47;14.82;;;8.85;;
86441;SDS011;77105;48.940;12.050;2024-03-23T06:05:49;11.20;;;7.50;;
86441;SDS011;77105;48.940;12.050;2024-03-23T06:09:52;11.23;;;7.72;;
86441;SDS011;77105;48.940;12.050;2024-03-23T06:13:54;7.90;;;6.53;;
86441;SDS011;77105;48.940;12.050;2024-03-23T06:17:57;8.63;;;7.07;;
86441;SDS011;77105;48.940;12.050;2024-03-23T06:21:58;6.75;;;4.78;;
86441;SDS011;77105;48.940;12.050;2024-03-23T06:26:01;4.93;;;4.15;;
86441;SDS011;77105;48.940;12.050;2024-03-23T06:30:04;5.78;;;4.40;;
86441;SDS011;77105;48.940;12.050;2024-03-23T06:34:06;6.38;;;4.38;;
86441;SDS011;77105;48.940;12.050;2024-03-23T06:38:08;5.47;;;4.30;;
86441;SDS011;77105;48.940;12.050;2024-03-23T06:42:11;4.85;;;3.78;;
86441;SDS011;77105;48.940;12.050;2024-03-23T06:46:13;4.00;;;3.38;;
86441;SDS011;77105;48.940;12.050;2024-03-23T06:50:15;5.15;;;3.90;;
86441;SDS011;77105;48.940;12.050;2024-03-23T06:54:17;4.03;;;3.63;;
86441;SDS011;77105;48.940;12.050;2024-03-23T06:58:23;3.38;;;2.85;;
86441;SDS011;77105;48.940;12.050;2024-03-23T07:02:25;5.70;;;3.17;;
86441;SDS011;77105;48.940;12.050;2024-03-23T07:06:27;4.85;;;3.15;;
86441;SDS011;77105;48.940;12.050;2024-03-23T07:10:29;4.35;;;3.65;;
86441;SDS011;77105;48.940;12.050;2024-03-23T07:14:32;5.20;;;3.95;;
86441;SDS011;77105;48.940;12.050;2024-03-23T07:18:34;5.82;;;3.78;;
86441;SDS011;77105;48.940;12.050;2024-03-23T07:22:36;4.55;;;3.50;;
86441;SDS011;77105;48.940;12.050;2024-03-23T07:26:37;4.88;;;4.15;;
86441;SDS011;77105;48.940;12.050;2024-03-23T07:30:40;4.72;;;3.78;;
86441;SDS011;77105;48.940;12.050;2024-03-23T07:34:41;5.25;;;3.75;;
86441;SDS011;77105;48.940;12.050;2024-03-23T07:38:44;5.45;;;4.47;;
86441;SDS011;77105;48.940;12.050;2024-03-23T07:42:45;5.43;;;4.10;;
86441;SDS011;77105;48.940;12.050;2024-03-23T07:46:48;5.68;;;4.45;;
86441;SDS011;77105;48.940;12.050;2024-03-23T07:50:59;6.78;;;4.65;;
86441;SDS011;77105;48.940;12.050;2024-03-23T07:55:02;5.50;;;3.65;;
86441;SDS011;77105;48.940;12.050;2024-03-23T07:59:04;3.75;;;2.80;;
86441;SDS011;77105;48.940;12.050;2024-03-23T08:03:07;3.85;;;2.60;;
86441;SDS011;77105;48.940;12.050;2024-03-23T08:07:10;2.90;;;2.50;;
86441;SDS011;77105;48.940;12.050;2024-03-23T08:11:11;3.22;;;2.40;;
86441;SDS011;77105;48.940;12.050;2024-03-23T08:15:14;2.95;;;2.30;;
86441;SDS011;77105;48.940;12.050;2024-03-23T08:19:17;3.80;;;2.88;;
86441;SDS011;77105;48.940;12.050;2024-03-23T08:23:19;2.92;;;2.30;;
86441;SDS011;77105;48.940;12.050;2024-03-23T08:27:21;3.33;;;2.78;;
86441;SDS011;77105;48.940;12.050;2024-03-23T08:31:22;4.22;;;3.25;;
86441;SDS011;77105;48.940;12.050;2024-03-23T08:35:26;4.95;;;2.97;;
86441;SDS011;77105;48.940;12.050;2024-03-23T08:39:27;3.38;;;2.42;;
86441;SDS011;77105;48.940;12.050;2024-03-23T08:43:30;3.58;;;2.80;;
86441;SDS011;77105;48.940;12.050;2024-03-23T08:47:34;3.58;;;2.63;;
86441;SDS011;77105;48.940;12.050;2024-03-23T08:51:38;3.15;;;1.92;;
86441;SDS011;77105;48.940;12.050;2024-03-23T08:55:40;4.20;;;2.17;;
86441;SDS011;77105;48.940;12.050;2024-03-23T08:59:42;3.03;;;2.20;;
86441;SDS011;77105;48.940;12.050;2024-03-23T09:03:43;3.20;;;2.45;;
86441;SDS011;77105;48.940;12.050;2024-03-23T09:07:47;3.25;;;2.33;;
86441;SDS011;77105;48.940;12.050;2024-03-23T09:11:48;2.85;;;2.60;;
86441;SDS011;77105;48.940;12.050;2024-03-23T09:15:51;4.15;;;2.80;;
86441;SDS011;77105;48.940;12.050;2024-03-23T09:19:56;3.20;;;2.42;;
86441;SDS011;77105;48.940;12.050;2024-03-23T09:23:59;3.33;;;1.98;;
86441;SDS011;77105;48.940;12.050;2024-03-23T09:28:01;2.92;;;2.45;;
86441;SDS011;77105;48.940;12.050;2024-03-23T09:32:03;3.45;;;2.70;;
86441;SDS011;77105;48.940;12.050;2024-03-23T09:36:05;2.95;;;2.53;;
86441;SDS011;77105;48.940;12.050;2024-03-23T09:40:10;3.63;;;1.92;;
86441;SDS011;77105;48.940;12.050;2024-03-23T09:44:12;3.15;;;2.40;;
86441;SDS011;77105;48.940;12.050;2024-03-23T09:48:15;2.83;;;2.53;;
86441;SDS011;77105;48.940;12.050;2024-03-23T09:52:17;3.00;;;2.08;;
86441;SDS011;77105;48.940;12.050;2024-03-23T09:56:20;2.58;;;2.15;;
86441;SDS011;77105;48.940;12.050;2024-03-23T10:00:23;2.50;;;2.05;;
86441;SDS011;77105;48.940;12.050;2024-03-23T10:04:38;2.65;;;1.75;;
86441;SDS011;77105;48.940;12.050;2024-03-23T10:08:40;2.20;;;1.83;;
86441;SDS011;77105;48.940;12.050;2024-03-23T10:12:45;1.50;;;1.20;;
86441;SDS011;77105;48.940;12.050;2024-03-23T10:20:50;1.70;;;1.30;;
86441;SDS011;77105;48.940;12.050;2024-03-23T10:24:53;0.85;;;0.85;;
86441;SDS011;77105;48.940;12.050;2024-03-23T10:29:10;1.02;;;0.93;;
86441;SDS011;77105;48.940;12.050;2024-03-23T10:33:13;0.80;;;0.80;;
86441;SDS011;77105;48.940;12.050;2024-03-23T10:37:15;1.30;;;1.10;;
86441;SDS011;77105;48.940;12.050;2024-03-23T10:41:18;3.38;;;1.30;;
86441;SDS011;77105;48.940;12.050;2024-03-23T10:45:21;1.33;;;0.98;;
86441;SDS011;77105;48.940;12.050;2024-03-23T10:49:23;1.00;;;0.85;;
86441;SDS011;77105;48.940;12.050;2024-03-23T10:53:27;1.23;;;1.13;;
86441;SDS011;77105;48.940;12.050;2024-03-23T10:57:31;1.63;;;1.33;;
86441;SDS011;77105;48.940;12.050;2024-03-23T11:01:48;1.45;;;1.15;;
86441;SDS011;77105;48.940;12.050;2024-03-23T11:05:55;1.10;;;1.00;;
86441;SDS011;77105;48.940;12.050;2024-03-23T11:09:56;1.30;;;1.20;;
86441;SDS011;77105;48.940;12.050;2024-03-23T11:13:59;1.10;;;1.00;;
86441;SDS011;77105;48.940;12.050;2024-03-23T11:18:05;1.13;;;1.02;;
86441;SDS011;77105;48.940;12.050;2024-03-23T11:22:09;1.17;;;1.00;;
86441;SDS011;77105;48.940;12.050;2024-03-23T11:26:11;2.33;;;1.27;;
86441;SDS011;77105;48.940;12.050;2024-03-23T11:30:14;1.10;;;1.00;;
86441;SDS011;77105;48.940;12.050;2024-03-23T11:34:19;1.33;;;1.23;;
86441;SDS011;77105;48.940;12.050;2024-03-23T11:38:21;1.17;;;1.00;;
86441;SDS011;77105;48.940;12.050;2024-03-23T11:42:23;0.77;;;0.73;;
86441;SDS011;77105;48.940;12.050;2024-03-23T11:46:25;1.13;;;0.98;;
86441;SDS011;77105;48.940;12.050;2024-03-23T11:50:28;0.80;;;0.80;;
86441;SDS011;77105;48.940;12.050;2024-03-23T11:54:30;1.33;;;1.23;;
86441;SDS011;77105;48.940;12.050;2024-03-23T11:58:32;1.38;;;1.23;;
86441;SDS011;77105;48.940;12.050;2024-03-23T12:02:36;2.42;;;1.50;;
86441;SDS011;77105;48.940;12.050;2024-03-23T12:06:39;1.75;;;1.40;;
86441;SDS011;77105;48.940;12.050;2024-03-23T12:10:43;2.70;;;1.13;;
86441;SDS011;77105;48.940;12.050;2024-03-23T12:15:00;1.13;;;1.02;;
86441;SDS011;77105;48.940;12.050;2024-03-23T12:19:04;1.55;;;1.38;;
86441;SDS011;77105;48.940;12.050;2024-03-23T12:23:09;1.58;;;1.48;;
86441;SDS011;77105;48.940;12.050;2024-03-23T12:27:12;1.27;;;1.17;;
86441;SDS011;77105;48.940;12.050;2024-03-23T12:31:15;1.55;;;1.23;;
86441;SDS011;77105;48.940;12.050;2024-03-23T12:35:17;1.23;;;1.10;;
86441;SDS011;77105;48.940;12.050;2024-03-23T12:39:20;1.38;;;1.00;;
86441;SDS011;77105;48.940;12.050;2024-03-23T12:43:22;1.48;;;1.38;;
86441;SDS011;77105;48.940;12.050;2024-03-23T12:47:24;1.20;;;1.05;;
86441;SDS011;77105;48.940;12.050;2024-03-23T12:51:24;2.20;;;1.30;;
86441;SDS011;77105;48.940;12.050;2024-03-23T12:55:28;1.88;;;1.38;;
86441;SDS011;77105;48.940;12.050;2024-03-23T12:59:30;2.28;;;1.80;;
86441;SDS011;77105;48.940;12.050;2024-03-23T13:03:32;2.90;;;1.50;;
86441;SDS011;77105;48.940;12.050;2024-03-23T13:07:34;1.60;;;1.38;;
86441;SDS011;77105;48.940;12.050;2024-03-23T13:11:39;2.15;;;1.30;;
86441;SDS011;77105;48.940;12.050;2024-03-23T13:15:41;1.27;;;1.13;;
86441;SDS011;77105;48.940;12.050;2024-03-23T13:19:42;3.28;;;1.67;;
86441;SDS011;77105;48.940;12.050;2024-03-23T13:23:46;2.45;;;1.45;;
86441;SDS011;77105;48.940;12.050;2024-03-23T13:27:50;2.78;;;1.92;;
86441;SDS011;77105;48.940;12.050;2024-03-23T13:31:52;5.68;;;3.38;;
86441;SDS011;77105;48.940;12.050;2024-03-23T13:35:54;1.67;;;1.48;;
86441;SDS011;77105;48.940;12.050;2024-03-23T13:39:57;1.83;;;1.48;;
86441;SDS011;77105;48.940;12.050;2024-03-23T13:44:00;2.35;;;1.60;;
86441;SDS011;77105;48.940;12.050;2024-03-23T13:48:02;4.60;;;2.17;;
86441;SDS011;77105;48.940;12.050;2024-03-23T13:52:04;2.17;;;1.45;;
86441;SDS011;77105;48.940;12.050;2024-03-23T13:56:07;2.55;;;1.73;;
86441;SDS011;77105;48.940;12.050;2024-03-23T14:00:11;4.20;;;1.80;;
86441;SDS011;77105;48.940;12.050;2024-03-23T14:04:13;4.03;;;2.58;;
86441;SDS011;77105;48.940;12.050;2024-03-23T14:08:17;3.17;;;1.88;;
86441;SDS011;77105;48.940;12.050;2024-03-23T14:12:19;2.30;;;1.95;;
86441;SDS011;77105;48.940;12.050;2024-03-23T14:16:22;4.22;;;2.85;;
86441;SDS011;77105;48.940;12.050;2024-03-23T14:20:24;3.35;;;1.98;;
86441;SDS011;77105;48.940;12.050;2024-03-23T14:24:26;3.47;;;2.53;;
86441;SDS011;77105;48.940;12.050;2024-03-23T14:28:28;2.53;;;1.67;;
86441;SDS011;77105;48.940;12.050;2024-03-23T14:32:31;5.80;;;2.58;;
86441;SDS011;77105;48.940;12.050;2024-03-23T14:36:34;5.30;;;2.58;;
86441;SDS011;77105;48.940;12.050;2024-03-23T14:40:36;3.78;;;1.88;;
86441;SDS011;77105;48.940;12.050;2024-03-23T14:44:38;3.13;;;2.10;;
86441;SDS011;77105;48.940;12.050;2024-03-23T14:48:41;3.60;;;2.00;;
86441;SDS011;77105;48.940;12.050;2024-03-23T14:52:44;4.63;;;2.45;;
86441;SDS011;77105;48.940;12.050;2024-03-23T14:56:47;2.83;;;2.15;;
86441;SDS011;77105;48.940;12.050;2024-03-23T15:00:48;3.00;;;2.03;;
86441;SDS011;77105;48.940;12.050;2024-03-23T15:04:52;4.45;;;2.20;;
86441;SDS011;77105;48.940;12.050;2024-03-23T15:08:54;4.07;;;2.13;;
86441;SDS011;77105;48.940;12.050;2024-03-23T15:12:56;3.83;;;2.08;;
86441;SDS011;77105;48.940;12.050;2024-03-23T15:16:58;4.57;;;1.85;;
86441;SDS011;77105;48.940;12.050;2024-03-23T15:21:02;4.78;;;2.53;;
86441;SDS011;77105;48.940;12.050;2024-03-23T15:25:06;3.25;;;2.08;;
86441;SDS011;77105;48.940;12.050;2024-03-23T15:29:10;5.85;;;2.53;;
86441;SDS011;77105;48.940;12.050;2024-03-23T15:33:15;3.47;;;2.40;;
86441;SDS011;77105;48.940;12.050;2024-03-23T15:37:18;3.92;;;2.08;;
86441;SDS011;77105;48.940;12.050;2024-03-23T15:41:20;3.55;;;1.65;;
86441;SDS011;77105;48.940;12.050;2024-03-23T15:45:23;2.55;;;1.50;;
86441;SDS011;77105;48.940;12.050;2024-03-23T15:49:25;1.45;;;0.90;;
86441;SDS011;77105;48.940;12.050;2024-03-23T15:53:29;2.83;;;1.17;;
86441;SDS011;77105;48.940;12.050;2024-03-23T15:57:32;3.17;;;1.48;;
86441;SDS011;77105;48.940;12.050;2024-03-23T16:01:34;1.98;;;1.58;;
86441;SDS011;77105;48.940;12.050;2024-03-23T16:05:36;3.03;;;1.55;;
86441;SDS011;77105;48.940;12.050;2024-03-23T16:09:39;7.57;;;6.15;;
86441;SDS011;77105;48.940;12.050;2024-03-23T16:13:41;5.82;;;4.78;;
86441;SDS011;77105;48.940;12.050;2024-03-23T16:17:43;3.45;;;1.42;;
86441;SDS011;77105;48.940;12.050;2024-03-23T16:21:45;1.90;;;1.20;;
86441;SDS011;77105;48.940;12.050;2024-03-23T16:25:49;2.60;;;1.27;;
86441;SDS011;77105;48.940;12.050;2024-03-23T16:29:56;2.55;;;1.83;;
86441;SDS011;77105;48.940;12.050;2024-03-23T16:33:59;2.47;;;1.33;;
86441;SDS011;77105;48.940;12.050;2024-03-23T16:38:01;2.90;;;1.60;;
86441;SDS011;77105;48.940;12.050;2024-03-23T16:42:04;3.05;;;2.20;;
86441;SDS011;77105;48.940;12.050;2024-03-23T16:46:06;3.13;;;2.08;;
86441;SDS011;77105;48.940;12.050;2024-03-23T16:50:11;1.45;;;1.15;;
86441;SDS011;77105;48.940;12.050;2024-03-23T16:54:13;2.55;;;1.70;;
86441;SDS011;77105;48.940;12.050;2024-03-23T16:58:16;2.90;;;1.90;;
86441;SDS011;77105;48.940;12.050;2024-03-23T17:02:19;4.40;;;2.85;;
86441;SDS011;77105;48.940;12.050;2024-03-23T17:06:20;2.00;;;1.65;;
86441;SDS011;77105;48.940;12.050;2024-03-23T17:10:24;3.72;;;2.13;;
86441;SDS011;77105;48.940;12.050;2024-03-23T17:14:27;4.82;;;2.28;;
86441;SDS011;77105;48.940;12.050;2024-03-23T17:18:29;1.83;;;1.63;;
86441;SDS011;77105;48.940;12.050;2024-03-23T17:22:30;1.88;;;1.60;;
86441;SDS011;77105;48.940;12.050;2024-03-23T17:26:31;3.05;;;1.58;;
86441;SDS011;77105;48.940;12.050;2024-03-23T17:30:34;1.98;;;1.77;;
86441;SDS011;77105;48.940;12.050;2024-03-23T17:34:36;4.38;;;1.70;;
86441;SDS011;77105;48.940;12.050;2024-03-23T17:38:38;2.03;;;1.33;;
86441;SDS011;77105;48.940;12.050;2024-03-23T17:42:40;2.20;;;2.03;;
86441;SDS011;77105;48.940;12.050;2024-03-23T17:46:42;4.53;;;1.77;;
86441;SDS011;77105;48.940;12.050;2024-03-23T17:50:44;3.25;;;2.08;;
86441;SDS011;77105;48.940;12.050;2024-03-23T17:54:47;1.92;;;1.48;;
86441;SDS011;77105;48.940;12.050;2024-03-23T17:58:49;2.88;;;2.08;;
86441;SDS011;77105;48.940;12.050;2024-03-23T18:02:52;3.15;;;2.45;;
86441;SDS011;77105;48.940;12.050;2024-03-23T18:06:54;2.95;;;1.70;;
86441;SDS011;77105;48.940;12.050;2024-03-23T18:10:56;3.88;;;1.63;;
86441;SDS011;77105;48.940;12.050;2024-03-23T18:14:58;2.65;;;1.42;;
86441;SDS011;77105;48.940;12.050;2024-03-23T18:19:02;1.45;;;1.33;;
86441;SDS011;77105;48.940;12.050;2024-03-23T18:23:05;3.20;;;2.05;;
86441;SDS011;77105;48.940;12.050;2024-03-23T18:27:06;2.35;;;1.55;;
86441;SDS011;77105;48.940;12.050;2024-03-23T18:31:09;1.65;;;1.50;;
86441;SDS011;77105;48.940;12.050;2024-03-23T18:35:13;2.95;;;1.60;;
86441;SDS011;77105;48.940;12.050;2024-03-23T18:39:15;3.03;;;1.92;;
86441;SDS011;77105;48.940;12.050;2024-03-23T18:43:17;3.35;;;2.17;;
86441;SDS011;77105;48.940;12.050;2024-03-23T18:47:19;3.65;;;1.95;;
86441;SDS011;77105;48.940;12.050;2024-03-23T18:51:23;4.35;;;2.92;;
86441;SDS011;77105;48.940;12.050;2024-03-23T18:55:25;3.55;;;2.50;;
86441;SDS011;77105;48.940;12.050;2024-03-23T18:59:26;2.75;;;1.50;;
86441;SDS011;77105;48.940;12.050;2024-03-23T19:03:27;2.38;;;1.52;;
86441;SDS011;77105;48.940;12.050;2024-03-23T19:07:31;4.47;;;2.03;;
86441;SDS011;77105;48.940;12.050;2024-03-23T19:11:33;4.78;;;2.28;;
86441;SDS011;77105;48.940;12.050;2024-03-23T19:15:35;2.80;;;2.40;;
86441;SDS011;77105;48.940;12.050;2024-03-23T19:19:37;2.83;;;1.67;;
86441;SDS011;77105;48.940;12.050;2024-03-23T19:23:41;6.18;;;2.03;;
86441;SDS011;77105;48.940;12.050;2024-03-23T19:27:42;1.90;;;1.60;;
86441;SDS011;77105;48.940;12.050;2024-03-23T19:31:43;4.20;;;2.35;;
86441;SDS011;77105;48.940;12.050;2024-03-23T19:35:45;2.50;;;2.22;;
86441;SDS011;77105;48.940;12.050;2024-03-23T19:39:49;3.72;;;2.10;;
86441;SDS011;77105;48.940;12.050;2024-03-23T19:43:51;3.38;;;2.20;;
86441;SDS011;77105;48.940;12.050;2024-03-23T19:47:53;3.00;;;1.80;;
86441;SDS011;77105;48.940;12.050;2024-03-23T19:51:54;3.95;;;2.33;;
86441;SDS011;77105;48.940;12.050;2024-03-23T19:55:58;5.78;;;3.67;;
86441;SDS011;77105;48.940;12.050;2024-03-23T20:00:01;6.22;;;2.47;;
86441;SDS011;77105;48.940;12.050;2024-03-23T20:04:03;7.90;;;3.35;;
86441;SDS011;77105;48.940;12.050;2024-03-23T20:08:05;3.35;;;2.17;;
86441;SDS011;77105;48.940;12.050;2024-03-23T20:12:09;4.28;;;2.70;;
86441;SDS011;77105;48.940;12.050;2024-03-23T20:16:11;3.65;;;2.35;;
86441;SDS011;77105;48.940;12.050;2024-03-23T20:20:13;2.53;;;1.60;;
86441;SDS011;77105;48.940;12.050;2024-03-23T20:24:15;1.58;;;1.45;;
86441;SDS011;77105;48.940;12.050;2024-03-23T20:28:18;2.38;;;1.42;;
86441;SDS011;77105;48.940;12.050;2024-03-23T20:32:20;2.80;;;1.58;;
86441;SDS011;77105;48.940;12.050;2024-03-23T20:36:22;3.05;;;1.88;;
86441;SDS011;77105;48.940;12.050;2024-03-23T20:40:24;3.38;;;1.75;;
86441;SDS011;77105;48.940;12.050;2024-03-23T20:44:27;2.90;;;2.20;;
86441;SDS011;77105;48.940;12.050;2024-03-23T20:48:29;4.55;;;2.38;;
86441;SDS011;77105;48.940;12.050;2024-03-23T20:52:33;5.90;;;2.25;;
86441;SDS011;77105;48.940;12.050;2024-03-23T20:56:35;1.80;;;1.55;;
86441;SDS011;77105;48.940;12.050;2024-03-23T21:00:38;2.47;;;2.10;;
86441;SDS011;77105;48.940;12.050;2024-03-23T21:04:41;3.17;;;2.20;;
86441;SDS011;77105;48.940;12.050;2024-03-23T21:08:43;2.45;;;1.98;;
86441;SDS011;77105;48.940;12.050;2024-03-23T21:12:46;6.05;;;2.60;;
86441;SDS011;77105;48.940;12.050;2024-03-23T21:16:49;4.88;;;2.35;;
86441;SDS011;77105;48.940;12.050;2024-03-23T21:20:53;4.40;;;2.83;;
86441;SDS011;77105;48.940;12.050;2024-03-23T21:24:57;3.50;;;2.58;;
86441;SDS011;77105;48.940;12.050;2024-03-23T21:28:59;2.95;;;2.33;;
86441;SDS011;77105;48.940;12.050;2024-03-23T21:33:02;4.32;;;1.88;;
86441;SDS011;77105;48.940;12.050;2024-03-23T21:37:05;4.35;;;2.45;;
86441;SDS011;77105;48.940;12.050;2024-03-23T21:41:07;2.33;;;2.13;;
86441;SDS011;77105;48.940;12.050;2024-03-23T21:45:08;3.70;;;1.88;;
86441;SDS011;77105;48.940;12.050;2024-03-23T21:49:12;2.65;;;2.45;;
86441;SDS011;77105;48.940;12.050;2024-03-23T21:53:14;2.88;;;1.98;;
86441;SDS011;77105;48.940;12.050;2024-03-23T21:57:15;3.55;;;2.20;;
86441;SDS011;77105;48.940;12.050;2024-03-23T22:01:17;2.60;;;1.50;;
86441;SDS011;77105;48.940;12.050;2024-03-23T22:05:21;2.80;;;1.88;;
86441;SDS011;77105;48.940;12.050;2024-03-23T22:09:26;1.33;;;1.23;;
86441;SDS011;77105;48.940;12.050;2024-03-23T22:13:29;2.35;;;1.20;;
86441;SDS011;77105;48.940;12.050;2024-03-23T22:17:30;1.80;;;1.55;;
86441;SDS011;77105;48.940;12.050;2024-03-23T22:21:34;1.73;;;1.48;;
86441;SDS011;77105;48.940;12.050;2024-03-23T22:25:35;3.67;;;1.58;;
86441;SDS011;77105;48.940;12.050;2024-03-23T22:29:37;2.97;;;1.65;;
86441;SDS011;77105;48.940;12.050;2024-03-23T22:33:39;1.83;;;1.60;;
86441;SDS011;77105;48.940;12.050;2024-03-23T22:37:42;2.00;;;1.67;;
86441;SDS011;77105;48.940;12.050;2024-03-23T22:41:44;1.45;;;1.17;;
86441;SDS011;77105;48.940;12.050;2024-03-23T22:45:51;1.75;;;1.65;;
86441;SDS011;77105;48.940;12.050;2024-03-23T22:49:55;2.03;;;1.67;;
86441;SDS011;77105;48.940;12.050;2024-03-23T22:53:59;2.55;;;1.58;;
86441;SDS011;77105;48.940;12.050;2024-03-23T22:58:01;2.22;;;1.40;;
86441;SDS011;77105;48.940;12.050;2024-03-23T23:02:03;2.83;;;1.50;;
86441;SDS011;77105;48.940;12.050;2024-03-23T23:06:05;2.17;;;1.60;;
86441;SDS011;77105;48.940;12.050;2024-03-23T23:10:10;1.77;;;1.67;;
86441;SDS011;77105;48.940;12.050;2024-03-23T23:14:12;3.08;;;1.70;;
86441;SDS011;77105;48.940;12.050;2024-03-23T23:18:13;1.25;;;1.15;;
86441;SDS011;77105;48.940;12.050;2024-03-23T23:22:15;2.08;;;1.88;;
86441;SDS011;77105;48.940;12.050;2024-03-23T23:26:19;1.55;;;1.33;;
86441;SDS011;77105;48.940;12.050;2024-03-23T23:30:20;1.27;;;1.10;;
86441;SDS011;77105;48.940;12.050;2024-03-23T23:34:22;3.03;;;2.00;;
86441;SDS011;77105;48.940;12.050;2024-03-23T23:38:24;1.77;;;1.38;;
86441;SDS011;77105;48.940;12.050;2024-03-23T23:42:29;1.25;;;1.15;;
86441;SDS011;77105;48.940;12.050;2024-03-23T23:46:31;0.93;;;0.85;;
86441;SDS011;77105;48.940;12.050;2024-03-23T23:50:32;1.55;;;1.35;;
86441;SDS011;77105;48.940;12.050;2024-03-23T23:54:34;2.97;;;1.10;;
86441;SDS011;77105;48.940;12.050;2024-03-23T23:58:38;3.78;;;1.13;;
